A- A+ FrançaisEnglishEspañol中国

le plus proche LFBT Tarbes-Lourdes-PyrénéesLFRI La-Roche-Sur-Yon-Les-Ajones LFJH Cazeres PalaminyLFBP Pau-Pyrénées

manche à air

La météo aéronautique pour les pilotes, la préparation du vol avec les METAR (METeorological Aerodrome Report, message d'observation des conditions météorologiques pour l'aviation) et Les TAF (Terminal Aerodrome Forecast : message de prévision à court terme des conditions météorologiques pour l'aviation). Et les autres ressources comme les VAC (Visual Approch Chart) et les NOTAM (Notice To Airman) pour préprer les vols.

Aéroport Ilorin (Nigéria) / OACI DNIL/ IATA ILR

L'altitude de l'aéroport Ilorin est de 343 m=1125 ft. Il est situé à proximité de Ilorin (Nigéria). La météo générale à 5 jours est disponible pour Ilorin situé à 9.1 km.

METAR de l'aéroport Ilorin - DNIL

DNIL 281100Z 12009KT CAVOK 30/21 Q1014

Décodage du METAR de l'aéroport Ilorin (NG)

METAR émis par DNIL le samedi 28 septembre 2019 à 11:00 heure TU. Attention ce METAR est obsolète car il a été émis il y a 13 heure et 27 minutes.

La visibilité est de supérieure à 10 km=supérieure à 6.2 sm.

La température est de 30°C=86 °F et le point rosée est de 21°C=70 °F . Ce qui correspond à 59% d'humidité relative.

Le QNH est de 1014 hPa=29.94 inHg

Vent de 9 kt=17 km/h, orienté à 120°.

Pas de nuages.

TAF de l'aéroport Ilorin - DNIL

DNIL 290500Z 2906/3012 00000KT CAVOK PROB30 TEMPO 2906/2908 5000 BR BKN008 BECMG 2908/2910 22010KT BKN010 TEMPO 2916/2921 TS SCT012 FEW020CB BECMG 2921/2923 VRB02KT FEW008

DNIL 290500Z 2906/3012 00000KT visibilité supérieure à 10km, aucun nuage à une hauteur inférieure à 5000 ft ou sous l'altitude minimale de secteur et aucun cumulonimbus ou cumulus bourgeonnant, quelle que soit leur altitude probabilité de 30% d'avoir temporairement 2906/2908 5000 brume couverture nuageuse fragmentée à 008 devenant 2908/2910 22010KT couverture nuageuse fragmentée à 010 temporairement 2916/2921 orage nuages épars à 012 quelques nuages à 020CB devenant 2921/2923 VRB02KT quelques nuages à 008

Aéroport à proximité de Ilorin

Météo générale à 5 jours à Ilorin (9.1 km)DNOS Aéroport Oshogbo (73 km)DNIB Aéroport Ibadan (133 km)DNAK Aéroport Akure (160 km)DNBI Aéroport Bida (183 km)DBBS Aéroport Save (228 km)DBBP Aéroport Parakou (231 km)

Vue aérienne de l'aéroport Ilorin

NOTAM de l'aéroport Ilorin

Les NOTAM sont fournis sans aucune garantie de leur actualité. Le pilote est le seul responsable de la vérification de sa validité avant de l'utiliser opérationnellement pour préparer un vol ou l'utiliser lors de sa navigation.

Pas de NOTAM

Sources des données